sensor_id;sensor_type;location;lat;lon;timestamp;P1;durP1;ratioP1;P2;durP2;ratioP2
76552;SDS011;65395;53.168;18.156;2023-05-08T00:00:15;11.80;;;6.50;;
76552;SDS011;65395;53.168;18.156;2023-05-08T00:03:01;8.50;;;5.50;;
76552;SDS011;65395;53.168;18.156;2023-05-08T00:05:28;9.70;;;5.90;;
76552;SDS011;65395;53.168;18.156;2023-05-08T00:07:55;9.70;;;5.90;;
76552;SDS011;65395;53.168;18.156;2023-05-08T00:10:27;11.40;;;6.10;;
76552;SDS011;65395;53.168;18.156;2023-05-08T00:12:54;12.10;;;6.20;;
76552;SDS011;65395;53.168;18.156;2023-05-08T00:15:21;10.40;;;6.10;;
76552;SDS011;65395;53.168;18.156;2023-05-08T00:17:48;11.60;;;6.40;;
76552;SDS011;65395;53.168;18.156;2023-05-08T00:20:15;10.90;;;6.60;;
76552;SDS011;65395;53.168;18.156;2023-05-08T00:22:42;11.40;;;6.10;;
76552;SDS011;65395;53.168;18.156;2023-05-08T00:25:09;8.70;;;5.80;;
76552;SDS011;65395;53.168;18.156;2023-05-08T00:27:35;10.50;;;5.90;;
76552;SDS011;65395;53.168;18.156;2023-05-08T00:30:02;10.60;;;5.90;;
76552;SDS011;65395;53.168;18.156;2023-05-08T00:32:29;9.80;;;5.70;;
76552;SDS011;65395;53.168;18.156;2023-05-08T00:34:56;11.10;;;6.10;;
76552;SDS011;65395;53.168;18.156;2023-05-08T00:37:22;8.80;;;5.40;;
76552;SDS011;65395;53.168;18.156;2023-05-08T00:39:49;10.90;;;6.10;;
76552;SDS011;65395;53.168;18.156;2023-05-08T00:42:16;11.10;;;6.70;;
76552;SDS011;65395;53.168;18.156;2023-05-08T00:44:43;10.30;;;6.10;;
76552;SDS011;65395;53.168;18.156;2023-05-08T00:47:11;10.10;;;6.20;;
76552;SDS011;65395;53.168;18.156;2023-05-08T00:49:37;15.00;;;6.30;;
76552;SDS011;65395;53.168;18.156;2023-05-08T00:52:04;11.50;;;6.80;;
76552;SDS011;65395;53.168;18.156;2023-05-08T00:54:35;11.50;;;7.10;;
76552;SDS011;65395;53.168;18.156;2023-05-08T00:57:05;11.20;;;6.20;;
76552;SDS011;65395;53.168;18.156;2023-05-08T00:59:33;12.90;;;6.70;;
76552;SDS011;65395;53.168;18.156;2023-05-08T01:02:02;10.50;;;6.50;;
76552;SDS011;65395;53.168;18.156;2023-05-08T01:04:30;10.40;;;6.70;;
76552;SDS011;65395;53.168;18.156;2023-05-08T01:06:58;13.50;;;6.90;;
76552;SDS011;65395;53.168;18.156;2023-05-08T01:09:26;11.60;;;6.60;;
76552;SDS011;65395;53.168;18.156;2023-05-08T01:11:55;11.50;;;6.10;;
76552;SDS011;65395;53.168;18.156;2023-05-08T01:17:25;10.50;;;6.70;;
76552;SDS011;65395;53.168;18.156;2023-05-08T01:20:08;10.20;;;6.90;;
76552;SDS011;65395;53.168;18.156;2023-05-08T01:25:55;14.70;;;7.00;;
76552;SDS011;65395;53.168;18.156;2023-05-08T01:31:23;11.80;;;6.90;;
76552;SDS011;65395;53.168;18.156;2023-05-08T01:34:06;15.20;;;8.00;;
76552;SDS011;65395;53.168;18.156;2023-05-08T01:39:33;14.90;;;8.40;;
76552;SDS011;65395;53.168;18.156;2023-05-08T01:42:17;13.90;;;8.70;;
76552;SDS011;65395;53.168;18.156;2023-05-08T01:45:00;15.50;;;9.20;;
76552;SDS011;65395;53.168;18.156;2023-05-08T01:47:31;24.30;;;12.30;;
76552;SDS011;65395;53.168;18.156;2023-05-08T01:50:04;18.90;;;11.20;;
76552;SDS011;65395;53.168;18.156;2023-05-08T01:52:36;21.30;;;12.40;;
76552;SDS011;65395;53.168;18.156;2023-05-08T01:55:10;21.50;;;12.80;;
76552;SDS011;65395;53.168;18.156;2023-05-08T01:57:42;21.60;;;12.90;;
76552;SDS011;65395;53.168;18.156;2023-05-08T02:00:13;20.20;;;12.50;;
76552;SDS011;65395;53.168;18.156;2023-05-08T02:02:44;18.20;;;11.50;;
76552;SDS011;65395;53.168;18.156;2023-05-08T02:05:12;17.90;;;10.90;;
76552;SDS011;65395;53.168;18.156;2023-05-08T02:07:40;18.60;;;11.10;;
76552;SDS011;65395;53.168;18.156;2023-05-08T02:10:09;17.90;;;10.30;;
76552;SDS011;65395;53.168;18.156;2023-05-08T02:12:37;17.90;;;10.50;;
76552;SDS011;65395;53.168;18.156;2023-05-08T02:15:06;14.70;;;8.70;;
76552;SDS011;65395;53.168;18.156;2023-05-08T02:17:35;13.00;;;8.00;;
76552;SDS011;65395;53.168;18.156;2023-05-08T02:20:04;12.50;;;7.80;;
76552;SDS011;65395;53.168;18.156;2023-05-08T02:22:33;12.60;;;8.30;;
76552;SDS011;65395;53.168;18.156;2023-05-08T02:25:02;13.20;;;7.80;;
76552;SDS011;65395;53.168;18.156;2023-05-08T02:27:29;14.30;;;7.30;;
76552;SDS011;65395;53.168;18.156;2023-05-08T02:29:57;12.40;;;7.40;;
76552;SDS011;65395;53.168;18.156;2023-05-08T02:32:25;12.50;;;6.70;;
76552;SDS011;65395;53.168;18.156;2023-05-08T02:34:54;12.50;;;6.90;;
76552;SDS011;65395;53.168;18.156;2023-05-08T02:37:22;10.20;;;6.90;;
76552;SDS011;65395;53.168;18.156;2023-05-08T02:39:51;11.50;;;5.90;;
76552;SDS011;65395;53.168;18.156;2023-05-08T02:42:23;12.90;;;6.90;;
76552;SDS011;65395;53.168;18.156;2023-05-08T02:44:50;12.20;;;6.80;;
76552;SDS011;65395;53.168;18.156;2023-05-08T02:47:20;11.60;;;6.60;;
76552;SDS011;65395;53.168;18.156;2023-05-08T02:49:51;11.20;;;5.90;;
76552;SDS011;65395;53.168;18.156;2023-05-08T02:52:29;10.60;;;6.20;;
76552;SDS011;65395;53.168;18.156;2023-05-08T02:55:03;10.50;;;6.10;;
76552;SDS011;65395;53.168;18.156;2023-05-08T02:57:49;11.40;;;6.60;;
76552;SDS011;65395;53.168;18.156;2023-05-08T03:00:28;11.70;;;6.90;;
76552;SDS011;65395;53.168;18.156;2023-05-08T03:02:59;11.40;;;6.40;;
76552;SDS011;65395;53.168;18.156;2023-05-08T03:05:34;16.40;;;6.20;;
76552;SDS011;65395;53.168;18.156;2023-05-08T03:08:06;11.20;;;6.50;;
76552;SDS011;65395;53.168;18.156;2023-05-08T03:10:40;12.00;;;5.90;;
76552;SDS011;65395;53.168;18.156;2023-05-08T03:13:11;12.60;;;6.20;;
76552;SDS011;65395;53.168;18.156;2023-05-08T03:15:43;9.30;;;6.30;;
76552;SDS011;65395;53.168;18.156;2023-05-08T03:18:13;11.10;;;6.80;;
76552;SDS011;65395;53.168;18.156;2023-05-08T03:20:44;9.20;;;6.00;;
76552;SDS011;65395;53.168;18.156;2023-05-08T03:23:15;10.00;;;6.00;;
76552;SDS011;65395;53.168;18.156;2023-05-08T03:25:45;12.70;;;6.60;;
76552;SDS011;65395;53.168;18.156;2023-05-08T03:28:13;11.30;;;5.90;;
76552;SDS011;65395;53.168;18.156;2023-05-08T03:30:41;9.10;;;6.00;;
76552;SDS011;65395;53.168;18.156;2023-05-08T03:33:12;10.60;;;6.40;;
76552;SDS011;65395;53.168;18.156;2023-05-08T03:35:39;10.30;;;5.90;;
76552;SDS011;65395;53.168;18.156;2023-05-08T03:38:08;10.80;;;6.40;;
76552;SDS011;65395;53.168;18.156;2023-05-08T03:40:35;12.10;;;6.70;;
76552;SDS011;65395;53.168;18.156;2023-05-08T03:43:05;10.00;;;6.30;;
76552;SDS011;65395;53.168;18.156;2023-05-08T03:45:34;12.00;;;6.30;;
76552;SDS011;65395;53.168;18.156;2023-05-08T03:48:02;10.90;;;6.60;;
76552;SDS011;65395;53.168;18.156;2023-05-08T03:50:31;13.00;;;7.10;;
76552;SDS011;65395;53.168;18.156;2023-05-08T03:53:01;11.50;;;7.00;;
76552;SDS011;65395;53.168;18.156;2023-05-08T03:55:29;12.10;;;7.00;;
76552;SDS011;65395;53.168;18.156;2023-05-08T03:58:00;16.80;;;7.80;;
76552;SDS011;65395;53.168;18.156;2023-05-08T04:00:50;13.00;;;7.80;;
76552;SDS011;65395;53.168;18.156;2023-05-08T04:03:32;14.90;;;8.00;;
76552;SDS011;65395;53.168;18.156;2023-05-08T04:06:19;12.00;;;7.00;;
76552;SDS011;65395;53.168;18.156;2023-05-08T04:12:01;13.10;;;7.80;;
76552;SDS011;65395;53.168;18.156;2023-05-08T04:14:33;12.20;;;7.70;;
76552;SDS011;65395;53.168;18.156;2023-05-08T04:17:09;15.60;;;9.00;;
76552;SDS011;65395;53.168;18.156;2023-05-08T04:19:42;16.10;;;9.80;;
76552;SDS011;65395;53.168;18.156;2023-05-08T04:22:12;16.90;;;8.90;;
76552;SDS011;65395;53.168;18.156;2023-05-08T04:24:41;16.80;;;10.80;;
76552;SDS011;65395;53.168;18.156;2023-05-08T04:27:11;18.10;;;11.20;;
76552;SDS011;65395;53.168;18.156;2023-05-08T04:29:38;18.80;;;12.50;;
76552;SDS011;65395;53.168;18.156;2023-05-08T04:32:06;18.50;;;12.20;;
76552;SDS011;65395;53.168;18.156;2023-05-08T04:34:34;22.60;;;12.90;;
76552;SDS011;65395;53.168;18.156;2023-05-08T04:37:02;20.50;;;11.90;;
76552;SDS011;65395;53.168;18.156;2023-05-08T04:39:29;19.60;;;11.80;;
76552;SDS011;65395;53.168;18.156;2023-05-08T04:41:55;18.80;;;12.50;;
76552;SDS011;65395;53.168;18.156;2023-05-08T04:44:28;21.00;;;12.60;;
76552;SDS011;65395;53.168;18.156;2023-05-08T04:46:59;21.60;;;11.40;;
76552;SDS011;65395;53.168;18.156;2023-05-08T04:49:26;18.50;;;11.80;;
76552;SDS011;65395;53.168;18.156;2023-05-08T04:51:53;18.50;;;11.80;;
76552;SDS011;65395;53.168;18.156;2023-05-08T04:54:20;17.80;;;11.80;;
76552;SDS011;65395;53.168;18.156;2023-05-08T04:56:46;17.80;;;11.80;;
76552;SDS011;65395;53.168;18.156;2023-05-08T04:59:13;18.60;;;12.30;;
76552;SDS011;65395;53.168;18.156;2023-05-08T05:01:41;18.30;;;11.40;;
76552;SDS011;65395;53.168;18.156;2023-05-08T05:04:08;20.30;;;12.30;;
76552;SDS011;65395;53.168;18.156;2023-05-08T05:06:35;18.80;;;12.10;;
76552;SDS011;65395;53.168;18.156;2023-05-08T05:09:02;20.20;;;12.00;;
76552;SDS011;65395;53.168;18.156;2023-05-08T05:11:29;19.70;;;11.90;;
76552;SDS011;65395;53.168;18.156;2023-05-08T05:13:56;18.30;;;12.10;;
76552;SDS011;65395;53.168;18.156;2023-05-08T05:16:23;19.40;;;12.70;;
76552;SDS011;65395;53.168;18.156;2023-05-08T05:18:50;21.20;;;12.50;;
76552;SDS011;65395;53.168;18.156;2023-05-08T05:21:17;21.10;;;12.30;;
76552;SDS011;65395;53.168;18.156;2023-05-08T05:23:44;20.80;;;12.50;;
76552;SDS011;65395;53.168;18.156;2023-05-08T05:26:14;19.90;;;12.40;;
76552;SDS011;65395;53.168;18.156;2023-05-08T05:28:41;18.30;;;12.30;;
76552;SDS011;65395;53.168;18.156;2023-05-08T05:31:08;21.00;;;12.60;;
76552;SDS011;65395;53.168;18.156;2023-05-08T05:33:35;20.20;;;12.60;;
76552;SDS011;65395;53.168;18.156;2023-05-08T05:36:02;18.40;;;11.60;;
76552;SDS011;65395;53.168;18.156;2023-05-08T05:38:29;20.00;;;12.40;;
76552;SDS011;65395;53.168;18.156;2023-05-08T05:40:58;17.60;;;11.80;;
76552;SDS011;65395;53.168;18.156;2023-05-08T05:43:25;23.10;;;13.40;;
76552;SDS011;65395;53.168;18.156;2023-05-08T05:45:52;23.30;;;13.10;;
76552;SDS011;65395;53.168;18.156;2023-05-08T05:48:21;22.10;;;12.90;;
76552;SDS011;65395;53.168;18.156;2023-05-08T05:50:48;23.40;;;12.50;;
76552;SDS011;65395;53.168;18.156;2023-05-08T05:53:15;22.20;;;12.70;;
76552;SDS011;65395;53.168;18.156;2023-05-08T05:55:42;24.90;;;13.50;;
76552;SDS011;65395;53.168;18.156;2023-05-08T05:58:09;24.20;;;12.20;;
76552;SDS011;65395;53.168;18.156;2023-05-08T06:00:36;20.90;;;11.90;;
76552;SDS011;65395;53.168;18.156;2023-05-08T06:03:03;21.30;;;11.90;;
76552;SDS011;65395;53.168;18.156;2023-05-08T06:05:30;19.00;;;10.80;;
76552;SDS011;65395;53.168;18.156;2023-05-08T06:07:58;20.10;;;11.60;;
76552;SDS011;65395;53.168;18.156;2023-05-08T06:10:25;15.80;;;9.90;;
76552;SDS011;65395;53.168;18.156;2023-05-08T06:12:52;14.90;;;9.30;;
76552;SDS011;65395;53.168;18.156;2023-05-08T06:15:20;12.50;;;8.50;;
76552;SDS011;65395;53.168;18.156;2023-05-08T06:17:47;14.00;;;8.30;;
76552;SDS011;65395;53.168;18.156;2023-05-08T06:20:15;11.50;;;7.00;;
76552;SDS011;65395;53.168;18.156;2023-05-08T06:22:42;8.80;;;6.30;;
76552;SDS011;65395;53.168;18.156;2023-05-08T06:25:09;10.70;;;6.70;;
76552;SDS011;65395;53.168;18.156;2023-05-08T06:27:36;11.90;;;6.60;;
76552;SDS011;65395;53.168;18.156;2023-05-08T06:30:03;10.10;;;6.10;;
76552;SDS011;65395;53.168;18.156;2023-05-08T06:32:33;9.40;;;5.70;;
76552;SDS011;65395;53.168;18.156;2023-05-08T06:35:00;8.60;;;5.50;;
76552;SDS011;65395;53.168;18.156;2023-05-08T06:37:26;7.20;;;5.20;;
76552;SDS011;65395;53.168;18.156;2023-05-08T06:39:53;9.00;;;4.80;;
76552;SDS011;65395;53.168;18.156;2023-05-08T06:42:20;12.60;;;4.30;;
76552;SDS011;65395;53.168;18.156;2023-05-08T06:44:47;6.60;;;3.90;;
76552;SDS011;65395;53.168;18.156;2023-05-08T06:47:16;6.00;;;4.10;;
76552;SDS011;65395;53.168;18.156;2023-05-08T06:49:42;6.90;;;4.00;;
76552;SDS011;65395;53.168;18.156;2023-05-08T06:52:09;6.70;;;3.80;;
76552;SDS011;65395;53.168;18.156;2023-05-08T06:54:36;5.80;;;4.00;;
76552;SDS011;65395;53.168;18.156;2023-05-08T06:57:03;5.10;;;3.60;;
76552;SDS011;65395;53.168;18.156;2023-05-08T06:59:30;7.30;;;4.10;;
76552;SDS011;65395;53.168;18.156;2023-05-08T07:01:57;6.50;;;4.20;;
76552;SDS011;65395;53.168;18.156;2023-05-08T07:04:24;6.50;;;4.00;;
76552;SDS011;65395;53.168;18.156;2023-05-08T07:06:51;6.00;;;4.10;;
76552;SDS011;65395;53.168;18.156;2023-05-08T07:09:18;7.20;;;4.10;;
76552;SDS011;65395;53.168;18.156;2023-05-08T07:11:45;6.30;;;4.20;;
76552;SDS011;65395;53.168;18.156;2023-05-08T07:14:11;5.60;;;4.10;;
76552;SDS011;65395;53.168;18.156;2023-05-08T07:16:38;6.00;;;3.70;;
76552;SDS011;65395;53.168;18.156;2023-05-08T07:19:05;5.80;;;3.60;;
76552;SDS011;65395;53.168;18.156;2023-05-08T07:21:32;5.00;;;3.70;;
76552;SDS011;65395;53.168;18.156;2023-05-08T07:23:59;7.50;;;3.70;;
76552;SDS011;65395;53.168;18.156;2023-05-08T07:26:26;5.10;;;2.80;;
76552;SDS011;65395;53.168;18.156;2023-05-08T07:28:53;4.80;;;2.60;;
76552;SDS011;65395;53.168;18.156;2023-05-08T07:31:20;5.00;;;2.70;;
76552;SDS011;65395;53.168;18.156;2023-05-08T07:33:47;4.20;;;2.70;;
76552;SDS011;65395;53.168;18.156;2023-05-08T07:36:14;3.00;;;2.30;;
76552;SDS011;65395;53.168;18.156;2023-05-08T07:38:43;3.00;;;2.30;;
76552;SDS011;65395;53.168;18.156;2023-05-08T07:41:10;5.60;;;2.50;;
76552;SDS011;65395;53.168;18.156;2023-05-08T07:43:37;6.10;;;2.30;;
76552;SDS011;65395;53.168;18.156;2023-05-08T07:46:04;3.30;;;2.40;;
76552;SDS011;65395;53.168;18.156;2023-05-08T07:48:31;5.70;;;2.30;;
76552;SDS011;65395;53.168;18.156;2023-05-08T07:50:58;3.50;;;2.30;;
76552;SDS011;65395;53.168;18.156;2023-05-08T07:53:24;5.40;;;2.60;;
76552;SDS011;65395;53.168;18.156;2023-05-08T07:55:51;3.70;;;2.30;;
76552;SDS011;65395;53.168;18.156;2023-05-08T07:58:18;2.80;;;2.30;;
76552;SDS011;65395;53.168;18.156;2023-05-08T08:00:45;4.40;;;2.40;;
76552;SDS011;65395;53.168;18.156;2023-05-08T08:03:12;7.30;;;2.70;;
76552;SDS011;65395;53.168;18.156;2023-05-08T08:05:38;3.50;;;2.40;;
76552;SDS011;65395;53.168;18.156;2023-05-08T08:08:05;3.30;;;2.50;;
76552;SDS011;65395;53.168;18.156;2023-05-08T08:10:32;4.30;;;2.70;;
76552;SDS011;65395;53.168;18.156;2023-05-08T08:12:59;3.20;;;2.50;;
76552;SDS011;65395;53.168;18.156;2023-05-08T08:15:27;4.80;;;2.70;;
76552;SDS011;65395;53.168;18.156;2023-05-08T08:17:54;7.20;;;3.00;;
76552;SDS011;65395;53.168;18.156;2023-05-08T08:20:20;4.20;;;2.60;;
76552;SDS011;65395;53.168;18.156;2023-05-08T08:22:47;5.60;;;2.80;;
76552;SDS011;65395;53.168;18.156;2023-05-08T08:25:14;7.60;;;2.80;;
76552;SDS011;65395;53.168;18.156;2023-05-08T08:27:41;4.90;;;2.80;;
76552;SDS011;65395;53.168;18.156;2023-05-08T08:30:07;8.70;;;2.90;;
76552;SDS011;65395;53.168;18.156;2023-05-08T08:32:34;4.30;;;2.70;;
76552;SDS011;65395;53.168;18.156;2023-05-08T08:35:01;6.50;;;3.00;;
76552;SDS011;65395;53.168;18.156;2023-05-08T08:37:28;5.40;;;2.90;;
76552;SDS011;65395;53.168;18.156;2023-05-08T08:39:55;4.60;;;3.00;;
76552;SDS011;65395;53.168;18.156;2023-05-08T08:42:22;6.60;;;3.10;;
76552;SDS011;65395;53.168;18.156;2023-05-08T08:44:49;4.30;;;3.00;;
76552;SDS011;65395;53.168;18.156;2023-05-08T08:47:16;4.30;;;3.10;;
76552;SDS011;65395;53.168;18.156;2023-05-08T08:49:48;6.80;;;3.20;;
76552;SDS011;65395;53.168;18.156;2023-05-08T08:55:06;5.30;;;2.90;;
76552;SDS011;65395;53.168;18.156;2023-05-08T08:57:38;6.10;;;3.30;;
76552;SDS011;65395;53.168;18.156;2023-05-08T09:00:14;5.20;;;2.70;;
76552;SDS011;65395;53.168;18.156;2023-05-08T09:02:42;14.30;;;2.50;;
76552;SDS011;65395;53.168;18.156;2023-05-08T09:05:09;3.40;;;2.60;;
76552;SDS011;65395;53.168;18.156;2023-05-08T09:07:37;5.70;;;2.60;;
76552;SDS011;65395;53.168;18.156;2023-05-08T09:10:05;5.30;;;2.60;;
76552;SDS011;65395;53.168;18.156;2023-05-08T09:12:32;2.80;;;2.40;;
76552;SDS011;65395;53.168;18.156;2023-05-08T09:14:59;5.00;;;2.60;;
76552;SDS011;65395;53.168;18.156;2023-05-08T09:17:26;4.00;;;2.40;;
76552;SDS011;65395;53.168;18.156;2023-05-08T09:19:52;6.30;;;2.60;;
76552;SDS011;65395;53.168;18.156;2023-05-08T09:22:19;5.60;;;2.50;;
76552;SDS011;65395;53.168;18.156;2023-05-08T09:24:57;3.80;;;2.60;;
76552;SDS011;65395;53.168;18.156;2023-05-08T09:27:25;6.20;;;2.60;;
76552;SDS011;65395;53.168;18.156;2023-05-08T09:29:57;3.30;;;2.30;;
76552;SDS011;65395;53.168;18.156;2023-05-08T09:32:28;4.80;;;2.60;;
76552;SDS011;65395;53.168;18.156;2023-05-08T09:34:56;4.70;;;2.50;;
76552;SDS011;65395;53.168;18.156;2023-05-08T09:37:24;4.10;;;2.60;;
76552;SDS011;65395;53.168;18.156;2023-05-08T09:39:51;3.60;;;2.60;;
76552;SDS011;65395;53.168;18.156;2023-05-08T09:42:18;6.20;;;3.00;;
76552;SDS011;65395;53.168;18.156;2023-05-08T09:44:47;6.90;;;2.70;;
76552;SDS011;65395;53.168;18.156;2023-05-08T09:47:17;6.10;;;2.90;;
76552;SDS011;65395;53.168;18.156;2023-05-08T09:52:26;5.60;;;2.80;;
76552;SDS011;65395;53.168;18.156;2023-05-08T09:57:33;4.90;;;3.00;;
76552;SDS011;65395;53.168;18.156;2023-05-08T10:00:10;5.10;;;3.10;;
76552;SDS011;65395;53.168;18.156;2023-05-08T10:02:39;9.10;;;3.30;;
76552;SDS011;65395;53.168;18.156;2023-05-08T10:07:55;4.60;;;3.00;;
76552;SDS011;65395;53.168;18.156;2023-05-08T10:10:25;7.40;;;3.30;;
76552;SDS011;65395;53.168;18.156;2023-05-08T10:12:53;4.90;;;3.80;;
76552;SDS011;65395;53.168;18.156;2023-05-08T10:15:22;7.30;;;3.70;;
76552;SDS011;65395;53.168;18.156;2023-05-08T10:18:07;5.00;;;3.40;;
76552;SDS011;65395;53.168;18.156;2023-05-08T10:20:40;5.00;;;3.00;;
76552;SDS011;65395;53.168;18.156;2023-05-08T10:23:11;7.60;;;3.50;;
76552;SDS011;65395;53.168;18.156;2023-05-08T10:25:44;5.00;;;3.30;;
76552;SDS011;65395;53.168;18.156;2023-05-08T10:28:15;5.80;;;3.50;;
76552;SDS011;65395;53.168;18.156;2023-05-08T10:30:49;4.90;;;3.80;;
76552;SDS011;65395;53.168;18.156;2023-05-08T10:33:19;6.20;;;3.40;;
76552;SDS011;65395;53.168;18.156;2023-05-08T10:35:47;8.60;;;3.50;;
76552;SDS011;65395;53.168;18.156;2023-05-08T10:38:14;8.10;;;3.90;;
76552;SDS011;65395;53.168;18.156;2023-05-08T10:40:42;6.80;;;4.90;;
76552;SDS011;65395;53.168;18.156;2023-05-08T10:43:09;6.30;;;4.00;;
76552;SDS011;65395;53.168;18.156;2023-05-08T10:45:37;5.90;;;3.90;;
76552;SDS011;65395;53.168;18.156;2023-05-08T10:48:11;5.50;;;3.70;;
76552;SDS011;65395;53.168;18.156;2023-05-08T10:50:55;6.00;;;4.10;;
76552;SDS011;65395;53.168;18.156;2023-05-08T10:53:37;5.40;;;4.00;;
76552;SDS011;65395;53.168;18.156;2023-05-08T10:56:08;10.50;;;4.20;;
76552;SDS011;65395;53.168;18.156;2023-05-08T10:58:36;6.90;;;4.00;;
76552;SDS011;65395;53.168;18.156;2023-05-08T11:01:11;9.70;;;4.20;;
76552;SDS011;65395;53.168;18.156;2023-05-08T11:03:40;9.40;;;3.90;;
76552;SDS011;65395;53.168;18.156;2023-05-08T11:06:08;6.80;;;3.80;;
76552;SDS011;65395;53.168;18.156;2023-05-08T11:08:44;4.90;;;3.70;;
76552;SDS011;65395;53.168;18.156;2023-05-08T11:11:16;6.40;;;3.70;;
76552;SDS011;65395;53.168;18.156;2023-05-08T11:13:51;4.70;;;3.80;;
76552;SDS011;65395;53.168;18.156;2023-05-08T11:19:15;5.10;;;3.60;;
76552;SDS011;65395;53.168;18.156;2023-05-08T11:24:33;7.10;;;3.10;;
76552;SDS011;65395;53.168;18.156;2023-05-08T11:27:02;8.10;;;3.40;;
76552;SDS011;65395;53.168;18.156;2023-05-08T11:29:29;5.80;;;3.60;;
76552;SDS011;65395;53.168;18.156;2023-05-08T11:31:56;6.30;;;4.20;;
76552;SDS011;65395;53.168;18.156;2023-05-08T11:37:10;11.70;;;4.30;;
76552;SDS011;65395;53.168;18.156;2023-05-08T11:39:42;6.20;;;3.70;;
76552;SDS011;65395;53.168;18.156;2023-05-08T11:45:03;6.10;;;3.50;;
76552;SDS011;65395;53.168;18.156;2023-05-08T11:47:36;4.20;;;3.40;;
76552;SDS011;65395;53.168;18.156;2023-05-08T11:50:04;5.60;;;3.30;;
76552;SDS011;65395;53.168;18.156;2023-05-08T11:52:33;6.70;;;3.20;;
76552;SDS011;65395;53.168;18.156;2023-05-08T11:55:05;4.80;;;3.30;;
76552;SDS011;65395;53.168;18.156;2023-05-08T11:57:36;11.50;;;4.00;;
76552;SDS011;65395;53.168;18.156;2023-05-08T12:00:05;6.70;;;3.60;;
76552;SDS011;65395;53.168;18.156;2023-05-08T12:02:37;9.50;;;3.50;;
76552;SDS011;65395;53.168;18.156;2023-05-08T12:05:06;6.30;;;3.00;;
76552;SDS011;65395;53.168;18.156;2023-05-08T12:10:12;7.20;;;3.50;;
76552;SDS011;65395;53.168;18.156;2023-05-08T12:12:40;5.00;;;3.30;;
76552;SDS011;65395;53.168;18.156;2023-05-08T12:15:09;6.20;;;3.10;;
76552;SDS011;65395;53.168;18.156;2023-05-08T12:17:37;4.00;;;3.30;;
76552;SDS011;65395;53.168;18.156;2023-05-08T12:20:12;4.10;;;3.20;;
76552;SDS011;65395;53.168;18.156;2023-05-08T12:22:41;7.90;;;3.20;;
76552;SDS011;65395;53.168;18.156;2023-05-08T12:25:09;4.00;;;3.00;;
76552;SDS011;65395;53.168;18.156;2023-05-08T12:27:37;4.40;;;2.70;;
76552;SDS011;65395;53.168;18.156;2023-05-08T12:30:05;7.60;;;2.80;;
76552;SDS011;65395;53.168;18.156;2023-05-08T12:32:37;10.40;;;2.80;;
76552;SDS011;65395;53.168;18.156;2023-05-08T12:35:06;3.70;;;2.50;;
76552;SDS011;65395;53.168;18.156;2023-05-08T12:37:35;8.10;;;3.00;;
76552;SDS011;65395;53.168;18.156;2023-05-08T12:40:02;3.90;;;2.40;;
76552;SDS011;65395;53.168;18.156;2023-05-08T12:45:08;6.90;;;3.10;;
76552;SDS011;65395;53.168;18.156;2023-05-08T12:47:44;4.60;;;3.00;;
76552;SDS011;65395;53.168;18.156;2023-05-08T12:50:13;5.20;;;2.70;;
76552;SDS011;65395;53.168;18.156;2023-05-08T12:52:42;5.10;;;3.10;;
76552;SDS011;65395;53.168;18.156;2023-05-08T12:57:57;3.70;;;2.70;;
76552;SDS011;65395;53.168;18.156;2023-05-08T13:03:06;6.20;;;2.70;;
76552;SDS011;65395;53.168;18.156;2023-05-08T13:05:35;4.40;;;2.40;;
76552;SDS011;65395;53.168;18.156;2023-05-08T13:08:04;4.80;;;2.80;;
76552;SDS011;65395;53.168;18.156;2023-05-08T13:13:12;5.00;;;3.00;;
76552;SDS011;65395;53.168;18.156;2023-05-08T13:15:41;4.50;;;2.40;;
76552;SDS011;65395;53.168;18.156;2023-05-08T13:18:08;4.00;;;2.30;;
76552;SDS011;65395;53.168;18.156;2023-05-08T13:20:35;4.30;;;2.70;;
76552;SDS011;65395;53.168;18.156;2023-05-08T13:23:03;3.10;;;2.50;;
76552;SDS011;65395;53.168;18.156;2023-05-08T13:25:30;5.60;;;2.80;;
76552;SDS011;65395;53.168;18.156;2023-05-08T13:27:57;6.80;;;2.70;;
76552;SDS011;65395;53.168;18.156;2023-05-08T13:30:25;7.70;;;2.80;;
76552;SDS011;65395;53.168;18.156;2023-05-08T13:32:52;7.20;;;2.60;;
76552;SDS011;65395;53.168;18.156;2023-05-08T13:35:19;6.50;;;2.80;;
76552;SDS011;65395;53.168;18.156;2023-05-08T13:37:47;3.90;;;2.60;;
76552;SDS011;65395;53.168;18.156;2023-05-08T13:40:14;5.80;;;2.50;;
76552;SDS011;65395;53.168;18.156;2023-05-08T13:42:41;5.50;;;2.80;;
76552;SDS011;65395;53.168;18.156;2023-05-08T13:45:09;6.30;;;2.60;;
76552;SDS011;65395;53.168;18.156;2023-05-08T13:47:38;3.30;;;2.50;;
76552;SDS011;65395;53.168;18.156;2023-05-08T13:50:07;3.80;;;2.70;;
76552;SDS011;65395;53.168;18.156;2023-05-08T13:52:35;4.10;;;2.90;;
76552;SDS011;65395;53.168;18.156;2023-05-08T13:55:05;3.00;;;2.60;;
76552;SDS011;65395;53.168;18.156;2023-05-08T13:57:34;4.10;;;2.60;;
76552;SDS011;65395;53.168;18.156;2023-05-08T14:00:01;5.80;;;2.40;;
76552;SDS011;65395;53.168;18.156;2023-05-08T14:02:33;5.70;;;2.70;;
76552;SDS011;65395;53.168;18.156;2023-05-08T14:05:01;3.10;;;2.80;;
76552;SDS011;65395;53.168;18.156;2023-05-08T14:07:28;5.90;;;2.80;;
76552;SDS011;65395;53.168;18.156;2023-05-08T14:09:55;5.60;;;2.70;;
76552;SDS011;65395;53.168;18.156;2023-05-08T14:12:22;6.30;;;2.40;;
76552;SDS011;65395;53.168;18.156;2023-05-08T14:14:49;3.40;;;3.00;;
76552;SDS011;65395;53.168;18.156;2023-05-08T14:17:16;10.10;;;3.00;;
76552;SDS011;65395;53.168;18.156;2023-05-08T14:19:42;8.40;;;2.70;;
76552;SDS011;65395;53.168;18.156;2023-05-08T14:22:09;2.80;;;2.50;;
76552;SDS011;65395;53.168;18.156;2023-05-08T14:24:35;4.70;;;2.50;;
76552;SDS011;65395;53.168;18.156;2023-05-08T14:27:02;2.90;;;2.70;;
76552;SDS011;65395;53.168;18.156;2023-05-08T14:29:31;5.60;;;2.90;;
76552;SDS011;65395;53.168;18.156;2023-05-08T14:31:59;4.10;;;2.90;;
76552;SDS011;65395;53.168;18.156;2023-05-08T14:34:25;3.40;;;2.70;;
76552;SDS011;65395;53.168;18.156;2023-05-08T14:36:52;3.00;;;2.60;;
76552;SDS011;65395;53.168;18.156;2023-05-08T14:39:19;10.60;;;3.00;;
76552;SDS011;65395;53.168;18.156;2023-05-08T14:41:46;6.60;;;2.60;;
76552;SDS011;65395;53.168;18.156;2023-05-08T14:44:13;6.20;;;2.60;;
76552;SDS011;65395;53.168;18.156;2023-05-08T14:46:39;3.30;;;2.60;;
76552;SDS011;65395;53.168;18.156;2023-05-08T14:49:06;4.10;;;2.60;;
76552;SDS011;65395;53.168;18.156;2023-05-08T14:51:33;4.30;;;2.90;;
76552;SDS011;65395;53.168;18.156;2023-05-08T14:54:00;4.20;;;2.70;;
76552;SDS011;65395;53.168;18.156;2023-05-08T14:56:27;4.00;;;2.80;;
76552;SDS011;65395;53.168;18.156;2023-05-08T14:58:54;2.70;;;2.50;;
76552;SDS011;65395;53.168;18.156;2023-05-08T15:01:20;4.40;;;2.80;;
76552;SDS011;65395;53.168;18.156;2023-05-08T15:03:47;5.90;;;2.80;;
76552;SDS011;65395;53.168;18.156;2023-05-08T15:06:19;3.10;;;2.60;;
76552;SDS011;65395;53.168;18.156;2023-05-08T15:08:47;7.20;;;3.90;;
76552;SDS011;65395;53.168;18.156;2023-05-08T15:11:14;5.40;;;2.90;;
76552;SDS011;65395;53.168;18.156;2023-05-08T15:13:41;3.10;;;2.50;;
76552;SDS011;65395;53.168;18.156;2023-05-08T15:16:08;9.90;;;3.30;;
76552;SDS011;65395;53.168;18.156;2023-05-08T15:18:35;4.50;;;3.00;;
76552;SDS011;65395;53.168;18.156;2023-05-08T15:21:01;12.40;;;3.20;;
76552;SDS011;65395;53.168;18.156;2023-05-08T15:23:28;4.90;;;2.90;;
76552;SDS011;65395;53.168;18.156;2023-05-08T15:25:55;4.70;;;2.70;;